createdAt,value
2022-12-04T00:00:26.718Z,3.03
2022-12-04T00:02:53.249Z,2.98
2022-12-04T00:05:19.792Z,2.78
2022-12-04T00:07:46.441Z,2.91
2022-12-04T00:10:12.966Z,2.93
2022-12-04T00:12:39.556Z,2.53
2022-12-04T00:17:55.403Z,2.78
2022-12-04T00:20:22.040Z,2.77
2022-12-04T00:22:48.612Z,2.55
2022-12-04T00:25:15.316Z,3.04
2022-12-04T00:27:41.964Z,2.59
2022-12-04T00:30:11.463Z,2.75
2022-12-04T00:32:37.952Z,2.86
2022-12-04T00:35:07.101Z,2.38
2022-12-04T00:37:34.496Z,2.66
2022-12-04T00:40:01.117Z,2.53
2022-12-04T00:42:27.583Z,2.70
2022-12-04T00:44:54.068Z,2.54
2022-12-04T00:47:23.415Z,2.91
2022-12-04T00:49:50.192Z,2.68
2022-12-04T00:52:18.173Z,2.47
2022-12-04T00:54:49.837Z,2.56
2022-12-04T00:57:16.617Z,2.74
2022-12-04T00:59:43.103Z,2.84
2022-12-04T01:02:11.773Z,2.87
2022-12-04T01:04:38.255Z,2.51
2022-12-04T01:07:05.527Z,2.61
2022-12-04T01:09:33.748Z,2.69
2022-12-04T01:12:00.236Z,3.00
2022-12-04T01:14:26.853Z,2.66
2022-12-04T01:16:53.424Z,2.50
2022-12-04T01:19:20.228Z,2.86
2022-12-04T01:21:46.740Z,2.82
2022-12-04T01:24:13.256Z,2.54
2022-12-04T01:26:41.100Z,2.55
2022-12-04T01:29:07.843Z,2.72
2022-12-04T01:31:34.577Z,2.93
2022-12-04T01:34:01.110Z,3.24
2022-12-04T01:36:28.538Z,2.82
2022-12-04T01:38:55.787Z,2.79
2022-12-04T01:41:25.199Z,2.85
2022-12-04T01:44:15.338Z,2.86
2022-12-04T01:46:43.441Z,2.65
2022-12-04T01:49:13.163Z,3.22
2022-12-04T01:51:41.994Z,2.92
2022-12-04T01:54:12.073Z,2.77
2022-12-04T01:56:41.370Z,2.75
2022-12-04T01:59:09.264Z,3.03
2022-12-04T02:01:42.615Z,2.87
2022-12-04T02:04:09.281Z,2.90
2022-12-04T02:06:35.817Z,2.60
2022-12-04T02:09:03.350Z,2.90
2022-12-04T02:11:38.285Z,2.56
2022-12-04T02:14:20.024Z,2.55
2022-12-04T02:16:56.453Z,2.68
2022-12-04T02:19:55.740Z,2.91
2022-12-04T02:22:36.895Z,2.62
2022-12-04T02:25:10.415Z,2.46
2022-12-04T02:27:59.394Z,2.73
2022-12-04T02:30:28.941Z,2.46
2022-12-04T02:33:02.326Z,2.42
2022-12-04T02:35:33.296Z,2.29
2022-12-04T02:38:06.215Z,2.48
2022-12-04T02:40:39.824Z,2.33
2022-12-04T02:43:13.789Z,2.20
2022-12-04T02:45:45.294Z,2.37
2022-12-04T02:48:16.963Z,2.24
2022-12-04T02:50:46.192Z,2.26
2022-12-04T02:53:16.381Z,2.05
2022-12-04T02:55:48.432Z,2.43
2022-12-04T02:58:25.405Z,2.21
2022-12-04T03:00:55.812Z,2.47
2022-12-04T03:03:24.989Z,2.19
2022-12-04T03:05:57.625Z,2.41
2022-12-04T03:08:29.498Z,2.20
2022-12-04T03:10:59.288Z,2.27
2022-12-04T03:13:32.916Z,2.38
2022-12-04T03:16:03.907Z,2.77
2022-12-04T03:18:34.115Z,2.52
2022-12-04T03:21:03.840Z,2.07
2022-12-04T03:23:34.184Z,2.15
2022-12-04T03:26:04.741Z,2.01
2022-12-04T03:28:41.624Z,2.27
2022-12-04T03:31:09.757Z,2.16
2022-12-04T03:33:42.063Z,2.16
2022-12-04T03:36:16.624Z,2.21
2022-12-04T03:38:49.258Z,2.35
2022-12-04T03:41:24.582Z,2.30
2022-12-04T03:43:59.094Z,2.37
2022-12-04T03:46:31.272Z,2.28
2022-12-04T03:49:04.501Z,2.47
2022-12-04T03:51:36.444Z,2.23
2022-12-04T03:54:07.609Z,2.70
2022-12-04T03:56:37.619Z,2.73
2022-12-04T03:59:09.094Z,2.27
2022-12-04T04:01:40.992Z,2.44
2022-12-04T04:04:12.436Z,2.39
2022-12-04T04:06:44.141Z,2.51
2022-12-04T04:09:15.114Z,2.54
2022-12-04T04:11:47.305Z,2.28
2022-12-04T04:14:21.940Z,2.27
2022-12-04T04:16:52.804Z,2.24
2022-12-04T04:19:21.572Z,2.42
2022-12-04T04:21:50.367Z,2.13
2022-12-04T04:24:28.033Z,2.21
2022-12-04T04:26:55.749Z,1.93
2022-12-04T04:29:23.645Z,2.19
2022-12-04T04:31:59.573Z,2.13
2022-12-04T04:34:37.897Z,1.83
2022-12-04T04:37:11.797Z,1.91
2022-12-04T04:39:44.317Z,1.92
2022-12-04T04:42:17.687Z,1.71
2022-12-04T04:44:51.272Z,1.85
2022-12-04T04:47:24.072Z,1.85
2022-12-04T04:49:52.578Z,1.73
2022-12-04T04:52:22.222Z,1.85
2022-12-04T04:54:48.725Z,1.89
2022-12-04T04:57:26.088Z,1.89
2022-12-04T04:59:54.172Z,2.01
2022-12-04T05:02:20.990Z,1.96
2022-12-04T05:04:47.640Z,1.86
2022-12-04T05:07:14.085Z,1.90
2022-12-04T05:09:41.488Z,1.52
2022-12-04T05:12:09.092Z,1.64
2022-12-04T05:14:35.597Z,1.71
2022-12-04T05:17:10.745Z,1.76
2022-12-04T05:19:39.112Z,1.88
2022-12-04T05:22:05.578Z,1.66
2022-12-04T05:24:32.109Z,1.80
2022-12-04T05:26:58.835Z,1.65
2022-12-04T05:29:25.276Z,1.74
2022-12-04T05:31:51.731Z,1.78
2022-12-04T05:34:19.563Z,1.85
2022-12-04T05:36:46.018Z,1.66
2022-12-04T05:39:13.364Z,1.43
2022-12-04T05:41:39.847Z,1.63
2022-12-04T05:44:06.357Z,1.73
2022-12-04T05:46:32.970Z,1.63
2022-12-04T05:48:59.544Z,1.58
2022-12-04T05:51:27.550Z,1.56
2022-12-04T05:53:54.459Z,1.75
2022-12-04T05:56:20.992Z,1.77
2022-12-04T05:58:47.651Z,1.74
2022-12-04T06:01:17.732Z,1.45
2022-12-04T06:03:44.528Z,1.59
2022-12-04T06:06:17.503Z,1.70
2022-12-04T06:08:50.348Z,1.66
2022-12-04T06:11:19.325Z,1.95
2022-12-04T06:13:46.542Z,2.10
2022-12-04T06:16:14.619Z,1.73
2022-12-04T06:18:41.598Z,1.86
2022-12-04T06:21:08.920Z,2.28
2022-12-04T06:23:35.883Z,1.74
2022-12-04T06:26:07.068Z,2.13
2022-12-04T06:28:34.725Z,2.20
2022-12-04T06:31:02.010Z,2.39
2022-12-04T06:33:28.751Z,2.44
2022-12-04T06:35:58.716Z,2.57
2022-12-04T06:38:25.391Z,2.79
2022-12-04T06:40:51.857Z,2.86
2022-12-04T06:43:19.669Z,2.60
2022-12-04T06:45:46.298Z,2.57
2022-12-04T06:48:12.809Z,2.58
2022-12-04T06:50:39.426Z,2.25
2022-12-04T06:53:08.464Z,2.23
2022-12-04T06:55:35.273Z,2.52
2022-12-04T06:58:01.817Z,2.43
2022-12-04T07:00:29.639Z,2.51
2022-12-04T07:02:56.243Z,2.61
2022-12-04T07:05:22.698Z,2.60
2022-12-04T07:07:49.189Z,2.69
2022-12-04T07:10:16.054Z,2.47
2022-12-04T07:12:42.674Z,2.65
2022-12-04T07:15:10.229Z,2.34
2022-12-04T07:17:38.046Z,2.61
2022-12-04T07:20:05.725Z,2.39
2022-12-04T07:22:35.199Z,2.33
2022-12-04T07:25:01.821Z,2.53
2022-12-04T07:27:31.702Z,2.51
2022-12-04T07:29:58.582Z,2.61
2022-12-04T07:32:25.103Z,2.91
2022-12-04T07:34:52.973Z,2.81
2022-12-04T07:37:19.505Z,2.88
2022-12-04T07:39:45.959Z,2.79
2022-12-04T07:42:12.576Z,2.79
2022-12-04T07:44:39.008Z,2.83
2022-12-04T07:47:05.627Z,3.09
2022-12-04T07:49:32.168Z,3.10
2022-12-04T07:52:00.299Z,3.24
2022-12-04T07:54:26.761Z,3.51
2022-12-04T07:56:53.253Z,3.05
2022-12-04T07:59:19.770Z,3.23
2022-12-04T08:01:46.308Z,3.47
2022-12-04T08:04:12.957Z,3.05
2022-12-04T08:06:39.856Z,3.23
2022-12-04T08:09:10.223Z,3.07
2022-12-04T08:11:37.394Z,3.20
2022-12-04T08:14:05.575Z,3.05
2022-12-04T08:16:35.215Z,3.13
2022-12-04T08:19:01.779Z,3.17
2022-12-04T08:21:31.239Z,3.37
2022-12-04T08:23:59.751Z,3.38
2022-12-04T08:26:31.983Z,3.50
2022-12-04T08:29:00.799Z,3.75
2022-12-04T08:31:29.570Z,3.83
2022-12-04T08:33:58.535Z,2.98
2022-12-04T08:36:25.516Z,3.26
2022-12-04T08:38:52.210Z,3.35
2022-12-04T08:41:20.194Z,3.06
2022-12-04T08:43:51.162Z,3.11
2022-12-04T08:46:18.724Z,3.15
2022-12-04T08:48:46.462Z,3.44
2022-12-04T08:51:14.865Z,3.31
2022-12-04T08:53:41.588Z,3.18
2022-12-04T08:56:08.613Z,3.42
2022-12-04T08:58:35.123Z,3.56
2022-12-04T09:01:07.716Z,3.84
2022-12-04T09:03:34.696Z,4.08
2022-12-04T09:06:02.578Z,3.96
2022-12-04T09:08:29.331Z,4.19
2022-12-04T09:11:01.838Z,4.27
2022-12-04T09:13:28.359Z,3.99
2022-12-04T09:15:55.042Z,3.68
2022-12-04T09:18:22.933Z,3.77
2022-12-04T09:20:59.054Z,3.86
2022-12-04T09:23:26.299Z,4.03
2022-12-04T09:25:52.813Z,3.74
2022-12-04T09:28:19.672Z,3.72
2022-12-04T09:30:55.467Z,3.41
2022-12-04T09:33:23.352Z,3.72
2022-12-04T09:35:50.165Z,3.84
2022-12-04T09:38:16.647Z,3.18
2022-12-04T09:40:50.532Z,3.65
2022-12-04T09:43:28.159Z,3.89
2022-12-04T09:46:02.342Z,4.18
2022-12-04T09:48:33.334Z,4.24
2022-12-04T09:51:02.342Z,4.16
2022-12-04T09:56:19.832Z,4.01
2022-12-04T09:58:52.539Z,4.05
2022-12-04T10:01:24.089Z,4.25
2022-12-04T10:03:54.235Z,4.44
2022-12-04T10:06:24.224Z,4.54
2022-12-04T10:08:58.662Z,4.67
2022-12-04T10:11:36.765Z,4.85
2022-12-04T10:14:14.361Z,4.43
2022-12-04T10:16:56.380Z,3.94
2022-12-04T10:19:32.466Z,3.97
2022-12-04T10:22:10.424Z,3.49
2022-12-04T10:24:43.654Z,3.88
2022-12-04T10:27:14.993Z,3.90
2022-12-04T10:29:43.639Z,3.65
2022-12-04T10:32:19.916Z,3.63
2022-12-04T10:34:50.391Z,3.46
2022-12-04T10:37:16.900Z,3.25
2022-12-04T10:39:50.168Z,3.59
2022-12-04T10:42:26.456Z,3.76
2022-12-04T10:44:53.205Z,4.18
2022-12-04T10:47:20.703Z,4.14
2022-12-04T10:49:48.924Z,4.44
2022-12-04T10:52:15.690Z,4.24
2022-12-04T10:54:46.126Z,3.79
2022-12-04T10:57:13.165Z,3.78
2022-12-04T10:59:48.082Z,3.98
2022-12-04T11:02:20.934Z,4.23
2022-12-04T11:04:55.445Z,4.15
2022-12-04T11:07:24.432Z,4.30
2022-12-04T11:09:59.524Z,3.92
2022-12-04T11:12:26.266Z,4.27
2022-12-04T11:15:11.817Z,4.22
2022-12-04T11:17:38.332Z,3.83
2022-12-04T11:23:25.911Z,4.19
2022-12-04T11:25:58.223Z,4.39
2022-12-04T11:28:45.564Z,4.27
2022-12-04T11:31:18.519Z,4.39
2022-12-04T11:33:51.443Z,4.18
2022-12-04T11:36:21.602Z,3.67
2022-12-04T11:38:50.774Z,3.98
2022-12-04T11:41:25.961Z,4.35
2022-12-04T11:43:56.700Z,4.42
2022-12-04T11:46:28.866Z,4.87
2022-12-04T11:48:55.537Z,4.62
2022-12-04T11:51:32.541Z,3.86
2022-12-04T11:54:06.969Z,3.91
2022-12-04T11:56:38.551Z,3.94
2022-12-04T11:59:29.075Z,3.97
2022-12-04T12:02:03.109Z,4.36
2022-12-04T12:04:45.613Z,4.30
2022-12-04T12:07:25.700Z,4.53
2022-12-04T12:10:01.592Z,4.38
2022-12-04T12:12:40.801Z,4.54
2022-12-04T12:15:21.887Z,4.18
2022-12-04T12:17:59.150Z,4.26
2022-12-04T12:20:32.879Z,4.42
2022-12-04T12:23:11.619Z,4.81
2022-12-04T12:25:52.294Z,4.63
2022-12-04T12:28:37.720Z,3.96
2022-12-04T12:31:32.169Z,4.42
2022-12-04T12:34:05.024Z,4.61
2022-12-04T12:36:41.289Z,4.70
2022-12-04T12:39:16.108Z,4.38
2022-12-04T12:41:50.279Z,4.76
2022-12-04T12:44:21.494Z,5.20
2022-12-04T12:46:54.195Z,5.05
2022-12-04T12:49:28.587Z,5.21
2022-12-04T12:52:01.294Z,4.63
2022-12-04T12:54:36.669Z,4.79
2022-12-04T12:57:11.292Z,4.37
2022-12-04T12:59:41.950Z,4.87
2022-12-04T13:02:17.877Z,4.68
2022-12-04T13:04:48.863Z,4.87
2022-12-04T13:07:31.760Z,4.57
2022-12-04T13:10:04.645Z,4.63
2022-12-04T13:12:39.488Z,4.88
2022-12-04T13:15:06.942Z,4.67
2022-12-04T13:17:38.843Z,4.96
2022-12-04T13:20:14.080Z,4.99
2022-12-04T13:22:51.714Z,4.89
2022-12-04T13:25:36.375Z,4.74
2022-12-04T13:28:17.576Z,5.01
2022-12-04T13:30:48.513Z,5.16
2022-12-04T13:33:49.830Z,4.89
2022-12-04T13:36:49.222Z,4.18
2022-12-04T13:39:36.115Z,4.26
2022-12-04T13:42:26.147Z,4.51
2022-12-04T13:44:57.096Z,4.88
2022-12-04T13:47:30.953Z,4.34
2022-12-04T13:50:25.186Z,4.40
2022-12-04T13:52:51.722Z,4.03
2022-12-04T13:55:27.198Z,3.99
2022-12-04T13:57:55.773Z,4.08
2022-12-04T14:00:30.945Z,3.94
2022-12-04T14:03:00.032Z,4.39
2022-12-04T14:05:30.501Z,4.51
2022-12-04T14:08:07.178Z,4.22
2022-12-04T14:10:36.293Z,4.30
2022-12-04T14:13:06.039Z,4.35
2022-12-04T14:15:36.991Z,4.40
2022-12-04T14:18:16.105Z,4.06
2022-12-04T14:20:44.413Z,4.43
2022-12-04T14:23:28.084Z,4.23
2022-12-04T14:25:55.568Z,4.22
2022-12-04T14:28:27.710Z,4.51
2022-12-04T14:31:19.865Z,4.40
2022-12-04T14:33:49.481Z,4.26
2022-12-04T14:36:19.282Z,4.06
2022-12-04T14:38:48.839Z,4.46
2022-12-04T14:41:23.802Z,4.43
2022-12-04T14:43:50.558Z,4.58
2022-12-04T14:46:22.554Z,4.37
2022-12-04T14:48:58.977Z,4.31
2022-12-04T14:51:34.329Z,4.32
2022-12-04T14:54:09.217Z,3.91
2022-12-04T14:56:57.882Z,3.72
2022-12-04T14:59:33.701Z,3.98
2022-12-04T15:02:01.795Z,4.47
2022-12-04T15:04:32.645Z,4.51
2022-12-04T15:07:00.617Z,4.33
2022-12-04T15:09:28.367Z,4.10
2022-12-04T15:11:58.414Z,4.19
2022-12-04T15:14:25.121Z,4.12
2022-12-04T15:17:03.598Z,4.47
2022-12-04T15:19:30.186Z,4.49
2022-12-04T15:21:59.567Z,4.25
2022-12-04T15:24:26.158Z,4.35
2022-12-04T15:26:54.256Z,4.36
2022-12-04T15:29:25.515Z,4.24
2022-12-04T15:31:54.757Z,4.46
2022-12-04T15:34:25.740Z,4.24
2022-12-04T15:36:59.644Z,4.16
2022-12-04T15:39:28.248Z,4.49
2022-12-04T15:42:05.125Z,4.31
2022-12-04T15:44:33.125Z,4.17
2022-12-04T15:47:02.404Z,4.16
2022-12-04T15:49:31.397Z,4.59
2022-12-04T15:52:06.801Z,4.48
2022-12-04T15:54:50.375Z,4.50
2022-12-04T15:57:28.737Z,4.30
2022-12-04T15:59:56.735Z,3.88
2022-12-04T16:02:25.534Z,4.19
2022-12-04T16:04:53.752Z,4.47
2022-12-04T16:07:22.488Z,4.38
2022-12-04T16:10:01.094Z,4.17
2022-12-04T16:12:31.779Z,4.22
2022-12-04T16:14:58.635Z,3.97
2022-12-04T16:17:30.325Z,4.51
2022-12-04T16:19:59.297Z,4.53
2022-12-04T16:22:26.562Z,4.49
2022-12-04T16:24:54.017Z,4.26
2022-12-04T16:27:22.830Z,4.01
2022-12-04T16:29:49.463Z,4.15
2022-12-04T16:32:18.353Z,4.34
2022-12-04T16:35:15.193Z,4.07
2022-12-04T16:37:41.779Z,4.11
2022-12-04T16:40:09.819Z,4.07
2022-12-04T16:42:36.357Z,4.09
2022-12-04T16:45:03.307Z,4.14
2022-12-04T16:47:31.938Z,4.02
2022-12-04T16:49:59.754Z,4.03
2022-12-04T16:52:26.324Z,3.81
2022-12-04T16:54:52.783Z,3.94
2022-12-04T16:57:19.319Z,4.50
2022-12-04T16:59:45.887Z,4.12
2022-12-04T17:02:16.038Z,4.05
2022-12-04T17:04:42.754Z,3.91
2022-12-04T17:07:10.809Z,4.23
2022-12-04T17:09:37.338Z,4.32
2022-12-04T17:12:04.261Z,4.28
2022-12-04T17:14:32.481Z,4.38
2022-12-04T17:17:02.321Z,4.59
2022-12-04T17:19:29.360Z,4.14
2022-12-04T17:21:55.874Z,4.64
2022-12-04T17:24:23.754Z,4.70
2022-12-04T17:26:50.263Z,4.56
2022-12-04T17:29:16.780Z,4.57
2022-12-04T17:31:45.423Z,4.45
2022-12-04T17:34:12.020Z,4.71
2022-12-04T17:36:38.521Z,4.38
2022-12-04T17:39:05.038Z,4.09
2022-12-04T17:41:33.061Z,3.99
2022-12-04T17:44:00.063Z,3.78
2022-12-04T17:46:26.794Z,3.50
2022-12-04T17:48:56.339Z,3.51
2022-12-04T17:51:24.296Z,3.68
2022-12-04T17:53:51.364Z,3.70
2022-12-04T17:56:20.433Z,3.59
2022-12-04T17:58:49.782Z,3.92
2022-12-04T18:01:19.438Z,4.00
2022-12-04T18:03:49.702Z,3.60
2022-12-04T18:06:18.548Z,4.15
2022-12-04T18:08:49.754Z,3.98
2022-12-04T18:11:16.930Z,3.97
2022-12-04T18:13:43.526Z,3.43
2022-12-04T18:16:11.971Z,3.86
2022-12-04T18:18:38.844Z,3.92
2022-12-04T18:21:07.791Z,3.90
2022-12-04T18:23:34.297Z,3.29
2022-12-04T18:26:00.921Z,3.31
2022-12-04T18:28:29.722Z,3.77
2022-12-04T18:30:56.353Z,3.45
2022-12-04T18:33:24.500Z,3.96
2022-12-04T18:35:54.338Z,3.54
2022-12-04T18:38:21.084Z,3.65
2022-12-04T18:40:47.624Z,3.55
2022-12-04T18:43:14.170Z,3.47
2022-12-04T18:45:40.809Z,3.66
2022-12-04T18:48:07.432Z,3.88
2022-12-04T18:50:35.561Z,4.17
2022-12-04T18:53:02.157Z,4.36
2022-12-04T18:55:28.720Z,4.40
2022-12-04T18:57:55.270Z,4.46
2022-12-04T19:00:22.120Z,3.75
2022-12-04T19:02:48.679Z,4.04
2022-12-04T19:05:15.433Z,4.00
2022-12-04T19:08:04.860Z,3.71
2022-12-04T19:11:32.211Z,3.90
2022-12-04T19:14:23.882Z,4.09
2022-12-04T19:17:25.232Z,3.84
2022-12-04T19:20:13.150Z,3.56
2022-12-04T19:26:35.199Z,3.79
2022-12-04T19:29:30.335Z,3.55
2022-12-04T19:35:35.980Z,4.20
2022-12-04T19:38:50.663Z,4.28
2022-12-04T19:59:04.147Z,3.78
2022-12-04T20:12:37.971Z,3.80
2022-12-04T20:15:57.413Z,4.06
2022-12-04T20:18:59.238Z,3.91
2022-12-04T20:21:29.983Z,4.19
2022-12-04T20:24:09.218Z,3.77
2022-12-04T20:26:51.779Z,4.14
2022-12-04T20:29:38.522Z,3.97
2022-12-04T20:35:27.322Z,3.62
2022-12-04T20:38:09.243Z,3.27
2022-12-04T20:40:44.665Z,3.39
2022-12-04T20:43:17.721Z,3.34
2022-12-04T20:48:50.537Z,3.57
2022-12-04T20:51:29.095Z,3.85
2022-12-04T20:54:04.057Z,3.29
2022-12-04T20:56:48.281Z,3.71
2022-12-04T20:59:38.263Z,3.68
2022-12-04T21:02:20.771Z,3.86
2022-12-04T21:04:54.053Z,3.57
2022-12-04T21:07:23.948Z,3.62
2022-12-04T21:09:53.837Z,3.50
2022-12-04T21:12:32.984Z,3.85
2022-12-04T21:15:20.336Z,3.88
2022-12-04T21:17:58.890Z,4.03
2022-12-04T21:20:34.138Z,3.72
2022-12-04T21:23:05.232Z,3.75
2022-12-04T21:25:41.074Z,4.12
2022-12-04T21:28:41.775Z,4.14
2022-12-04T21:31:13.141Z,3.65
2022-12-04T21:33:44.398Z,3.44
2022-12-04T21:36:22.192Z,3.73
2022-12-04T21:39:05.630Z,3.86
2022-12-04T21:41:46.854Z,3.93
2022-12-04T21:44:15.625Z,3.32
2022-12-04T21:47:03.136Z,3.27
2022-12-04T21:49:35.064Z,3.37
2022-12-04T21:52:07.548Z,3.41
2022-12-04T21:54:39.325Z,3.36
2022-12-04T21:57:09.776Z,3.43
2022-12-04T21:59:40.996Z,3.59
2022-12-04T22:02:09.443Z,3.77
2022-12-04T22:04:40.897Z,3.29
2022-12-04T22:07:10.348Z,3.62
2022-12-04T22:09:54.758Z,3.55
2022-12-04T22:12:49.053Z,3.68
2022-12-04T22:15:27.999Z,3.85
2022-12-04T22:17:58.460Z,3.84
2022-12-04T22:20:24.986Z,3.71
2022-12-04T22:22:52.796Z,4.25
2022-12-04T22:25:19.303Z,4.26
2022-12-04T22:27:45.784Z,4.17
2022-12-04T22:30:13.205Z,4.11
2022-12-04T22:32:39.696Z,3.91
2022-12-04T22:35:06.603Z,4.08
2022-12-04T22:37:33.344Z,4.27
2022-12-04T22:40:01.352Z,4.28
2022-12-04T22:42:27.895Z,4.19
2022-12-04T22:44:54.375Z,4.20
2022-12-04T22:47:20.840Z,4.32
2022-12-04T22:49:47.384Z,4.59
2022-12-04T22:52:13.969Z,4.39
2022-12-04T22:54:40.455Z,4.41
2022-12-04T22:57:08.566Z,3.98
2022-12-04T22:59:35.103Z,4.07
2022-12-04T23:02:01.809Z,4.18
2022-12-04T23:04:29.062Z,4.18
2022-12-04T23:06:55.671Z,4.31
2022-12-04T23:09:22.158Z,4.07
2022-12-04T23:11:50.645Z,4.28
2022-12-04T23:14:18.531Z,4.57
2022-12-04T23:16:45.109Z,3.78
2022-12-04T23:19:13.935Z,4.11
2022-12-04T23:21:40.996Z,4.35
2022-12-04T23:24:08.021Z,4.42
2022-12-04T23:26:36.269Z,4.14
2022-12-04T23:29:05.336Z,4.07
2022-12-04T23:31:38.228Z,3.57
2022-12-04T23:34:05.698Z,3.83
2022-12-04T23:36:32.563Z,3.89
2022-12-04T23:38:59.253Z,4.02
2022-12-04T23:41:27.539Z,3.91
2022-12-04T23:43:54.827Z,4.42
2022-12-04T23:46:23.590Z,4.25
2022-12-04T23:48:51.695Z,4.32
2022-12-04T23:51:19.892Z,4.42
2022-12-04T23:53:47.426Z,4.34
2022-12-04T23:56:16.257Z,4.50
2022-12-04T23:58:44.266Z,4.22
